Huvudsida
METAR-TAF:

METAR-TAF

Flygplatser :

Arar, Saudiarabien

latitud: 30-54N, longitud: 041-08E, höjd: 555 m

Aktuellt väderrapport

Denna rapport gjordes för 1 timme och 15 minuter sedan, klockan 20:00 UTC
Vind 7 kt från väst/sydväst
Temperatur 28°C
Fuktighet 22%
Tryck 1014 hPa
Sikt 10 km eller mer
Inga moln under 1 500 m eller inga cumulonimbus

METAR: OERR 212000Z 25007KT CAVOK 28/04 Q1014 NOSIG

Tid: 00:15 (21:15 UTC)

Väderprognos

Denna rapport gjordes för 10 timmar och 15 minuter sedan, klockan 11:00 UTC
Prognos gäller från 21 kl. 12 UTC till 22 kl. 18 UTC
Vind 12 kt från nord/nordost
Sikt: 7000 m
Blir
från 21 kl. 20 UTC till 21 kl. 22 UTC
Vind 10 kt från väst/nordväst

TAF: OERR 211100Z 2112/2218 03012KT 7000 NSC BECMG 2120/2122 29010KT

Aktuella väderrapporter och prognoser från 4000 flygplatser (METAR- och TAF-rapporter).

De tillgängliga stationerna syns som gula och röda prickar på kartan.

För musen över prickarna för att se namnen på stationerna.

Klicka sedan för att få väderrapporter och prognoser.

För att ändra kartan: Klicka på de gröna knapparna med ett svart kors på för att zooma in; den gröna knappen med ett streck på för att zooma ut; eller på de gröna pilarna för angränsande kartor.


METAR-TAF: